Seagoville's Hourly Summary for Saturday, March 18, 2017
Hour Temp
(f)
RH
(%)
Solar Rad.
(MJ/m2)
Rainfall
(in)
Wind
(mph)
3/18/2017 12:00 AM 69 70 0 0 7.57
3/18/2017 1:00 AM 67 75 0 0 8.47
3/18/2017 2:00 AM 66 79 0 0 8.87
3/18/2017 3:00 AM 65 83 0 0 5.57
3/18/2017 4:00 AM 62 90 0 0 2.36
3/18/2017 5:00 AM 61 93 0 0 3.25
3/18/2017 6:00 AM 61 95 0 0 3.3
3/18/2017 7:00 AM 62 94 0.01 0 4.55
3/18/2017 8:00 AM 63 92 0.13 0 3.66
3/18/2017 9:00 AM 65 86 0.34 0 3.84
3/18/2017 10:00 AM 67 78 0.6 0 5.33
3/18/2017 11:00 AM 70 70 1.21 0 5.52
3/18/2017 12:00 PM 73 64 1.83 0 4.76
3/18/2017 1:00 PM 76 59 2.47 0 5.04
3/18/2017 2:00 PM 77 60 2.06 0 6.59
3/18/2017 3:00 PM 78 55 1.94 0 6.65
3/18/2017 4:00 PM 78 55 1.74 0 6.67
3/18/2017 5:00 PM 78 55 1.24 0 7.43
3/18/2017 6:00 PM 77 56 0.43 0 6.49
3/18/2017 7:00 PM 74 60 0.04 0 3.91
3/18/2017 8:00 PM 70 72 0 0 2.78
3/18/2017 9:00 PM 67 79 0 0 2.16
3/18/2017 10:00 PM 65 84 0 0 1.03
3/18/2017 11:00 PM 64 88 0 0 1.21
Data Summary 68 74 14.04 0.00 4.88